Time;durP1;ratioP1;P1;durP2;ratioP2;P2;SDS_P1;SDS_P2;PMS_P1;PMS_P2;Temp;Humidity;BMP_temperature;BMP_pressure;BME280_temperature;BME280_humidity;BME280_pressure;Samples;Min_cycle;Max_cycle;Signal;HPM_P1;HPM_P2
2024/01/13 00:02:04;;;;;;;0.30;0.30;;;;;;;;;;6191905;28;20485;-75
2024/01/13 00:05:05;;;;;;;0.30;0.30;;;;;;;;;;6196930;28;20030;-79
2024/01/13 00:08:05;;;;;;;0.30;0.30;;;;;;;;;;6241147;28;20094;-78
2024/01/13 00:11:05;;;;;;;0.30;0.30;;;;;;;;;;6189719;28;20062;-79
2024/01/13 00:14:06;;;;;;;0.30;0.30;;;;;;;;;;6180691;28;20056;-79
2024/01/13 00:17:06;;;;;;;0.30;0.30;;;;;;;;;;6174048;28;20106;-75
2024/01/13 00:20:06;;;;;;;0.30;0.30;;;;;;;;;;6189389;28;20026;-75
2024/01/13 00:23:07;;;;;;;0.30;0.30;;;;;;;;;;6189986;28;20023;-76
2024/01/13 00:26:07;;;;;;;0.30;0.30;;;;;;;;;;6183044;28;20030;-75
2024/01/13 00:29:08;;;;;;;0.30;0.30;;;;;;;;;;6180932;28;20027;-75
2024/01/13 00:32:09;;;;;;;0.30;0.30;;;;;;;;;;6182201;28;20025;-75
2024/01/13 00:35:09;;;;;;;0.30;0.30;;;;;;;;;;6174341;28;20381;-75
2024/01/13 00:38:09;;;;;;;0.30;0.30;;;;;;;;;;6184022;28;20029;-75
2024/01/13 00:41:09;;;;;;;0.30;0.30;;;;;;;;;;6185160;28;20031;-75
2024/01/13 00:44:10;;;;;;;0.30;0.30;;;;;;;;;;6178266;28;20477;-75
2024/01/13 00:47:10;;;;;;;0.30;0.30;;;;;;;;;;6176456;28;20061;-78
2024/01/13 00:50:10;;;;;;;0.23;0.23;;;;;;;;;;6174207;28;20033;-78
2024/01/13 00:53:10;;;;;;;0.20;0.20;;;;;;;;;;6185911;28;20037;-79
2024/01/13 00:56:11;;;;;;;0.30;0.30;;;;;;;;;;6183870;28;20023;-79
2024/01/13 00:59:11;;;;;;;0.30;0.30;;;;;;;;;;6183526;28;20059;-78
2024/01/13 01:02:11;;;;;;;0.30;0.30;;;;;;;;;;6180759;28;20037;-78
2024/01/13 01:05:11;;;;;;;0.20;0.20;;;;;;;;;;6193039;28;20068;-78
2024/01/13 01:08:12;;;;;;;0.20;0.20;;;;;;;;;;6189909;28;20053;-78
2024/01/13 01:11:12;;;;;;;0.30;0.30;;;;;;;;;;6194905;28;20512;-78
2024/01/13 01:14:12;;;;;;;0.20;0.20;;;;;;;;;;6189659;28;20393;-78
2024/01/13 01:17:13;;;;;;;0.30;0.30;;;;;;;;;;6175057;28;20393;-78
2024/01/13 01:20:13;;;;;;;0.40;0.40;;;;;;;;;;6178352;28;20018;-78
2024/01/13 01:23:13;;;;;;;0.30;0.30;;;;;;;;;;6193163;28;20396;-78
2024/01/13 01:26:14;;;;;;;0.30;0.30;;;;;;;;;;6196985;28;20030;-75
2024/01/13 01:29:14;;;;;;;0.30;0.30;;;;;;;;;;6184888;28;20097;-75
2024/01/13 01:32:14;;;;;;;0.30;0.30;;;;;;;;;;6188370;28;20030;-74
2024/01/13 01:35:14;;;;;;;0.30;0.30;;;;;;;;;;6210917;28;20109;-75
2024/01/13 01:38:14;;;;;;;0.30;0.30;;;;;;;;;;6175970;28;20045;-75
2024/01/13 01:41:15;;;;;;;0.30;0.30;;;;;;;;;;6181850;28;20046;-75
2024/01/13 01:44:15;;;;;;;0.30;0.30;;;;;;;;;;6192462;28;20026;-74
2024/01/13 01:47:18;;;;;;;0.30;0.30;;;;;;;;;;6183066;28;20761;-79
2024/01/13 01:50:18;;;;;;;0.30;0.30;;;;;;;;;;6179993;28;20393;-76
2024/01/13 01:53:19;;;;;;;0.30;0.30;;;;;;;;;;6182604;28;20018;-78
2024/01/13 01:56:21;;;;;;;0.30;0.30;;;;;;;;;;6204811;28;20018;-75
2024/01/13 01:59:21;;;;;;;0.30;0.30;;;;;;;;;;6182021;28;20054;-75
2024/01/13 02:02:22;;;;;;;0.30;0.30;;;;;;;;;;6178651;28;20039;-74
2024/01/13 02:05:22;;;;;;;0.30;0.30;;;;;;;;;;6182916;28;20075;-75
2024/01/13 02:08:23;;;;;;;0.30;0.30;;;;;;;;;;6197454;28;20030;-74
2024/01/13 02:11:23;;;;;;;0.30;0.30;;;;;;;;;;6195123;28;20064;-75
2024/01/13 02:14:23;;;;;;;0.30;0.30;;;;;;;;;;6175648;28;20021;-75
2024/01/13 02:17:24;;;;;;;0.40;0.40;;;;;;;;;;6187976;28;20098;-74
2024/01/13 02:20:24;;;;;;;0.20;0.20;;;;;;;;;;6185983;28;20015;-74
2024/01/13 02:23:24;;;;;;;0.30;0.30;;;;;;;;;;6239249;28;20064;-74
2024/01/13 02:26:28;;;;;;;0.30;0.30;;;;;;;;;;6179653;28;20019;-74
2024/01/13 02:29:28;;;;;;;0.30;0.30;;;;;;;;;;6197946;28;20385;-74
2024/01/13 02:32:28;;;;;;;0.30;0.30;;;;;;;;;;6195621;28;20114;-74
2024/01/13 02:35:28;;;;;;;0.30;0.30;;;;;;;;;;6171407;28;20023;-74
2024/01/13 02:38:28;;;;;;;0.30;0.30;;;;;;;;;;6197838;28;20044;-74
2024/01/13 02:41:30;;;;;;;0.30;0.30;;;;;;;;;;6193917;28;20022;-74
2024/01/13 02:44:30;;;;;;;0.30;0.30;;;;;;;;;;6169444;28;20469;-77
2024/01/13 02:47:35;;;;;;;0.30;0.30;;;;;;;;;;6184910;28;20077;-78
2024/01/13 02:50:36;;;;;;;0.30;0.30;;;;;;;;;;6190991;28;20018;-78
2024/01/13 02:53:36;;;;;;;0.30;0.30;;;;;;;;;;6176939;28;20050;-78
2024/01/13 02:56:36;;;;;;;0.30;0.30;;;;;;;;;;6190337;28;20056;-74
2024/01/13 02:59:36;;;;;;;0.30;0.30;;;;;;;;;;6182308;28;20022;-75
2024/01/13 03:02:37;;;;;;;0.30;0.30;;;;;;;;;;6169456;28;20019;-75
2024/01/13 03:05:37;;;;;;;0.20;0.20;;;;;;;;;;6170561;28;20083;-75
2024/01/13 03:08:38;;;;;;;0.30;0.30;;;;;;;;;;6217168;28;20030;-74
2024/01/13 03:11:38;;;;;;;0.30;0.30;;;;;;;;;;6282699;28;20040;-74
2024/01/13 03:14:38;;;;;;;0.30;0.30;;;;;;;;;;6295731;28;20071;-75
2024/01/13 03:17:38;;;;;;;0.30;0.30;;;;;;;;;;6284574;28;20029;-75
2024/01/13 03:20:38;;;;;;;0.40;0.40;;;;;;;;;;6291541;28;20087;-75
2024/01/13 03:23:39;;;;;;;0.30;0.30;;;;;;;;;;6289528;28;20042;-75
2024/01/13 03:26:39;;;;;;;0.30;0.30;;;;;;;;;;6305894;28;20033;-78
2024/01/13 03:29:39;;;;;;;0.30;0.30;;;;;;;;;;6289445;28;20047;-78
2024/01/13 03:32:39;;;;;;;0.30;0.30;;;;;;;;;;6292143;28;20115;-78
2024/01/13 03:35:40;;;;;;;0.30;0.30;;;;;;;;;;6279021;28;20019;-78
2024/01/13 03:38:40;;;;;;;0.30;0.30;;;;;;;;;;6282310;28;20046;-78
2024/01/13 03:41:40;;;;;;;0.30;0.30;;;;;;;;;;6287758;28;20036;-79
2024/01/13 03:44:40;;;;;;;0.30;0.30;;;;;;;;;;6274399;28;20518;-75
2024/01/13 03:47:41;;;;;;;0.20;0.20;;;;;;;;;;6298975;28;20032;-75
2024/01/13 03:50:41;;;;;;;0.30;0.30;;;;;;;;;;6282448;28;20025;-75
2024/01/13 03:53:41;;;;;;;0.30;0.30;;;;;;;;;;6283135;28;20099;-75
2024/01/13 03:56:41;;;;;;;0.30;0.30;;;;;;;;;;6281061;28;20016;-75
2024/01/13 03:59:42;;;;;;;0.30;0.30;;;;;;;;;;6273075;28;20025;-75
2024/01/13 04:02:42;;;;;;;0.40;0.40;;;;;;;;;;6288396;28;20102;-73
2024/01/13 04:05:42;;;;;;;0.30;0.30;;;;;;;;;;6283008;28;20032;-72
2024/01/13 04:08:44;;;;;;;0.30;0.30;;;;;;;;;;6288082;28;20037;-75
2024/01/13 04:11:44;;;;;;;0.30;0.30;;;;;;;;;;6202099;28;20428;-75
2024/01/13 04:14:45;;;;;;;0.30;0.30;;;;;;;;;;6172411;28;20084;-77
2024/01/13 04:17:45;;;;;;;0.33;0.33;;;;;;;;;;6181062;28;20458;-78
2024/01/13 04:20:45;;;;;;;0.30;0.30;;;;;;;;;;6189489;28;20009;-78
2024/01/13 04:23:45;;;;;;;0.27;0.27;;;;;;;;;;6178767;28;20427;-78
2024/01/13 04:26:46;;;;;;;0.30;0.30;;;;;;;;;;6181544;28;20027;-78
2024/01/13 04:29:46;;;;;;;0.30;0.30;;;;;;;;;;6184362;28;20027;-79
2024/01/13 04:32:46;;;;;;;0.20;0.20;;;;;;;;;;6182590;28;20222;-79
2024/01/13 04:35:47;;;;;;;0.20;0.20;;;;;;;;;;6171900;28;20131;-78
2024/01/13 04:38:47;;;;;;;0.30;0.30;;;;;;;;;;6181083;28;20068;-78
2024/01/13 04:41:48;;;;;;;0.27;0.27;;;;;;;;;;6184307;28;20026;-78
2024/01/13 04:44:48;;;;;;;0.30;0.30;;;;;;;;;;6179871;28;20026;-78
2024/01/13 04:47:48;;;;;;;0.20;0.20;;;;;;;;;;6181285;28;20513;-78
2024/01/13 04:50:50;;;;;;;0.30;0.30;;;;;;;;;;6184261;28;20027;-78
2024/01/13 04:53:50;;;;;;;;;;;;;;;;;;6183286;28;20127;-78
2024/01/13 04:56:50;;;;;;;0.30;0.30;;;;;;;;;;6183248;28;19906;-78
2024/01/13 04:59:50;;;;;;;0.30;0.30;;;;;;;;;;6182642;28;20015;-78
2024/01/13 05:02:51;;;;;;;0.30;0.30;;;;;;;;;;6176303;28;20034;-78
2024/01/13 05:05:51;;;;;;;0.30;0.30;;;;;;;;;;6175000;28;20033;-78
2024/01/13 05:08:51;;;;;;;0.30;0.30;;;;;;;;;;6203016;28;20095;-78
2024/01/13 05:11:52;;;;;;;0.30;0.30;;;;;;;;;;6191542;28;20517;-78
2024/01/13 05:14:52;;;;;;;0.30;0.30;;;;;;;;;;6193793;28;20881;-77
2024/01/13 05:17:52;;;;;;;0.20;0.20;;;;;;;;;;6185232;28;20145;-78
2024/01/13 05:20:52;;;;;;;0.30;0.30;;;;;;;;;;6184247;28;20122;-78
2024/01/13 05:23:53;;;;;;;0.30;0.30;;;;;;;;;;6186405;28;20073;-78
2024/01/13 05:26:54;;;;;;;0.30;0.30;;;;;;;;;;6181142;28;20130;-78
2024/01/13 05:29:54;;;;;;;0.30;0.30;;;;;;;;;;6177782;28;20515;-78
2024/01/13 05:32:54;;;;;;;0.30;0.30;;;;;;;;;;6191300;28;20320;-78
2024/01/13 05:35:54;;;;;;;0.30;0.30;;;;;;;;;;6191745;28;20105;-78
2024/01/13 05:38:54;;;;;;;0.30;0.30;;;;;;;;;;6175783;28;20493;-78
2024/01/13 05:41:55;;;;;;;0.30;0.30;;;;;;;;;;6180276;28;20022;-78
2024/01/13 05:44:55;;;;;;;0.30;0.30;;;;;;;;;;6175041;28;20027;-78
2024/01/13 05:47:55;;;;;;;0.30;0.30;;;;;;;;;;6190768;28;20057;-78
2024/01/13 05:50:55;;;;;;;0.30;0.30;;;;;;;;;;6182295;28;20487;-78
2024/01/13 05:53:56;;;;;;;0.30;0.30;;;;;;;;;;6174812;28;20030;-78
2024/01/13 05:56:56;;;;;;;0.30;0.30;;;;;;;;;;6176111;28;20014;-78
2024/01/13 05:59:56;;;;;;;0.30;0.30;;;;;;;;;;6190136;28;20029;-78
2024/01/13 06:02:57;;;;;;;0.30;0.30;;;;;;;;;;6179670;28;20022;-78
2024/01/13 06:05:58;;;;;;;0.30;0.30;;;;;;;;;;6182995;28;20117;-78
2024/01/13 06:08:58;;;;;;;0.30;0.30;;;;;;;;;;6187131;28;20036;-78
2024/01/13 06:11:58;;;;;;;0.30;0.30;;;;;;;;;;6188954;28;20473;-78
2024/01/13 06:14:58;;;;;;;0.30;0.30;;;;;;;;;;6180972;28;20035;-78
2024/01/13 06:17:58;;;;;;;0.30;0.30;;;;;;;;;;6189447;28;20076;-78
2024/01/13 06:21:00;;;;;;;0.30;0.30;;;;;;;;;;6182307;28;20123;-78
2024/01/13 06:24:00;;;;;;;0.30;0.30;;;;;;;;;;6187024;28;20543;-78
2024/01/13 06:27:00;;;;;;;0.30;0.30;;;;;;;;;;6185264;28;20035;-75
2024/01/13 06:30:00;;;;;;;0.30;0.30;;;;;;;;;;6180544;28;20022;-75
2024/01/13 06:33:02;;;;;;;0.30;0.30;;;;;;;;;;6197242;28;20026;-75
2024/01/13 06:36:02;;;;;;;0.20;0.20;;;;;;;;;;6191369;28;20014;-75
2024/01/13 06:39:04;;;;;;;0.30;0.30;;;;;;;;;;6189266;28;20025;-75
2024/01/13 06:42:06;;;;;;;0.30;0.30;;;;;;;;;;6185306;28;20053;-76
2024/01/13 06:45:06;;;;;;;0.30;0.30;;;;;;;;;;6188302;28;20433;-77
2024/01/13 06:48:06;;;;;;;0.27;0.27;;;;;;;;;;6181446;28;20022;-77
2024/01/13 06:51:07;;;;;;;0.30;0.30;;;;;;;;;;6186157;28;20100;-79
2024/01/13 06:54:07;;;;;;;0.30;0.30;;;;;;;;;;6180645;28;20030;-77
2024/01/13 06:57:07;;;;;;;0.30;0.30;;;;;;;;;;6181362;28;20027;-75
2024/01/13 07:00:08;;;;;;;0.30;0.30;;;;;;;;;;6190636;28;20053;-75
2024/01/13 07:03:08;;;;;;;0.30;0.30;;;;;;;;;;6187883;28;20026;-75
2024/01/13 07:06:08;;;;;;;0.20;0.20;;;;;;;;;;6187652;28;20038;-75
2024/01/13 07:09:09;;;;;;;0.30;0.30;;;;;;;;;;6194698;28;20037;-75
2024/01/13 07:12:09;;;;;;;0.30;0.30;;;;;;;;;;6189953;28;20053;-75
2024/01/13 07:15:09;;;;;;;0.30;0.30;;;;;;;;;;6186255;28;20033;-75
2024/01/13 07:18:10;;;;;;;0.30;0.30;;;;;;;;;;6174748;28;20130;-75
2024/01/13 07:21:10;;;;;;;0.30;0.30;;;;;;;;;;6187491;28;20034;-74
2024/01/13 07:24:11;;;;;;;0.30;0.30;;;;;;;;;;6188499;28;20032;-75
2024/01/13 07:27:12;;;;;;;0.30;0.30;;;;;;;;;;6187141;28;20496;-75
2024/01/13 07:30:13;;;;;;;0.30;0.30;;;;;;;;;;6180868;28;20113;-74
2024/01/13 07:33:13;;;;;;;0.20;0.20;;;;;;;;;;6184782;28;20022;-74
2024/01/13 07:36:14;;;;;;;0.30;0.30;;;;;;;;;;6187085;28;20058;-75
2024/01/13 07:39:14;;;;;;;0.20;0.20;;;;;;;;;;6187836;28;20031;-75
2024/01/13 07:42:15;;;;;;;0.30;0.30;;;;;;;;;;6184930;28;20469;-75
2024/01/13 07:45:15;;;;;;;0.30;0.30;;;;;;;;;;6186932;28;20561;-74
2024/01/13 07:48:16;;;;;;;0.27;0.27;;;;;;;;;;6178597;28;20022;-74
2024/01/13 07:51:16;;;;;;;0.20;0.20;;;;;;;;;;6186134;28;20033;-74
2024/01/13 07:54:16;;;;;;;0.30;0.30;;;;;;;;;;6173613;28;20031;-74
2024/01/13 07:57:16;;;;;;;0.30;0.30;;;;;;;;;;6179077;28;20393;-75
2024/01/13 08:00:17;;;;;;;0.20;0.20;;;;;;;;;;6170719;28;20370;-74
2024/01/13 08:03:17;;;;;;;0.30;0.30;;;;;;;;;;6181440;28;20029;-75
2024/01/13 08:06:17;;;;;;;0.30;0.30;;;;;;;;;;6181883;28;20417;-74
2024/01/13 08:09:17;;;;;;;0.30;0.30;;;;;;;;;;6199979;28;20117;-74
2024/01/13 08:12:18;;;;;;;0.30;0.30;;;;;;;;;;6188032;28;20040;-74
2024/01/13 08:15:18;;;;;;;0.20;0.20;;;;;;;;;;6184088;28;20057;-75
2024/01/13 08:18:19;;;;;;;0.30;0.30;;;;;;;;;;6182654;28;20019;-75
2024/01/13 08:21:19;;;;;;;0.30;0.30;;;;;;;;;;6176338;28;20033;-75
2024/01/13 08:24:19;;;;;;;0.30;0.30;;;;;;;;;;6197311;28;20037;-76
2024/01/13 08:27:20;;;;;;;0.20;0.20;;;;;;;;;;6187321;28;20026;-78
2024/01/13 08:30:20;;;;;;;0.20;0.20;;;;;;;;;;6193859;28;20033;-77
2024/01/13 08:33:20;;;;;;;0.20;0.20;;;;;;;;;;6186619;28;20033;-77
2024/01/13 08:36:21;;;;;;;0.20;0.20;;;;;;;;;;6187260;28;20476;-75
2024/01/13 08:39:22;;;;;;;0.30;0.30;;;;;;;;;;6178982;28;20021;-74
2024/01/13 08:42:22;;;;;;;0.20;0.20;;;;;;;;;;6169489;28;20081;-75
2024/01/13 08:45:29;;;;;;;0.20;0.20;;;;;;;;;;6176814;28;20026;-77
2024/01/13 08:48:31;;;;;;;0.22;0.22;;;;;;;;;;6187305;28;20476;-77
2024/01/13 08:51:31;;;;;;;0.20;0.20;;;;;;;;;;6175428;28;20477;-77
2024/01/13 08:54:31;;;;;;;0.30;0.30;;;;;;;;;;6176292;28;20030;-77
2024/01/13 08:57:31;;;;;;;0.20;0.20;;;;;;;;;;6185391;28;20453;-77
2024/01/13 09:00:32;;;;;;;0.20;0.20;;;;;;;;;;6175904;28;20023;-78
2024/01/13 09:03:32;;;;;;;0.30;0.30;;;;;;;;;;6176837;28;20731;-78
2024/01/13 09:06:33;;;;;;;0.20;0.20;;;;;;;;;;6198015;28;20026;-78
2024/01/13 09:09:33;;;;;;;0.20;0.20;;;;;;;;;;6184555;28;20050;-78
2024/01/13 09:12:33;;;;;;;0.30;0.30;;;;;;;;;;6179688;28;20027;-77
2024/01/13 09:15:33;;;;;;;0.30;0.30;;;;;;;;;;6191580;28;20018;-77
2024/01/13 09:18:33;;;;;;;0.30;0.30;;;;;;;;;;6189133;28;20568;-78
2024/01/13 09:21:35;;;;;;;0.30;0.30;;;;;;;;;;6182459;28;20109;-77
2024/01/13 09:24:35;;;;;;;0.30;0.30;;;;;;;;;;6189899;28;20496;-78
2024/01/13 09:27:35;;;;;;;0.20;0.20;;;;;;;;;;6184718;28;20022;-77
2024/01/13 09:30:36;;;;;;;0.20;0.20;;;;;;;;;;6172278;28;20026;-78
2024/01/13 09:33:36;;;;;;;0.30;0.30;;;;;;;;;;6179068;28;20023;-77
2024/01/13 09:36:36;;;;;;;0.30;0.30;;;;;;;;;;6170920;28;20039;-78
2024/01/13 09:39:36;;;;;;;0.20;0.20;;;;;;;;;;6183389;28;20402;-78
2024/01/13 09:42:47;;;;;;;0.20;0.20;;;;;;;;;;6181328;28;20062;-78
2024/01/13 09:45:51;;;;;;;0.20;0.20;;;;;;;;;;6186484;28;20141;-78
2024/01/13 09:48:53;;;;;;;0.30;0.30;;;;;;;;;;6190365;28;20030;-78
2024/01/13 09:51:54;;;;;;;0.20;0.20;;;;;;;;;;6176624;28;20030;-78
2024/01/13 09:54:58;;;;;;;0.23;0.23;;;;;;;;;;6175490;28;20030;-78
2024/01/13 09:57:59;;;;;;;0.30;0.30;;;;;;;;;;6253953;28;20027;-78
2024/01/13 10:00:59;;;;;;;0.20;0.20;;;;;;;;;;6171800;28;20392;-78
2024/01/13 10:04:00;;;;;;;0.30;0.30;;;;;;;;;;6174826;28;20405;-78
2024/01/13 10:07:00;;;;;;;0.20;0.20;;;;;;;;;;6188628;28;20026;-78
2024/01/13 10:10:00;;;;;;;0.30;0.30;;;;;;;;;;6189997;28;20325;-78
2024/01/13 10:13:00;;;;;;;0.30;0.30;;;;;;;;;;6180127;28;20061;-77
2024/01/13 10:16:01;;;;;;;0.20;0.20;;;;;;;;;;6182476;28;20022;-75
2024/01/13 10:19:02;;;;;;;0.20;0.20;;;;;;;;;;6189230;28;20027;-75
2024/01/13 10:22:02;;;;;;;0.20;0.20;;;;;;;;;;6182471;28;20420;-75
2024/01/13 10:25:02;;;;;;;0.20;0.20;;;;;;;;;;6196001;28;20277;-75
2024/01/13 10:28:03;;;;;;;0.20;0.20;;;;;;;;;;6185264;28;20030;-75
2024/01/13 10:31:03;;;;;;;0.20;0.20;;;;;;;;;;6194319;28;20018;-75
2024/01/13 10:34:08;;;;;;;0.20;0.20;;;;;;;;;;6184948;28;20026;-75
2024/01/13 10:37:13;;;;;;;0.20;0.20;;;;;;;;;;6182534;28;20448;-75
2024/01/13 10:40:13;;;;;;;0.30;0.30;;;;;;;;;;6193527;28;20541;-75
2024/01/13 10:43:14;;;;;;;0.20;0.20;;;;;;;;;;6182292;28;20018;-75
2024/01/13 10:46:21;;;;;;;0.20;0.20;;;;;;;;;;6190244;28;20022;-75
2024/01/13 10:49:31;;;;;;;0.20;0.20;;;;;;;;;;6172071;28;20033;-75
2024/01/13 10:52:48;;;;;;;0.20;0.20;;;;;;;;;;6188009;28;20522;-75
2024/01/13 10:55:49;;;;;;;0.20;0.20;;;;;;;;;;6181754;28;20481;-75
2024/01/13 10:58:50;;;;;;;0.20;0.20;;;;;;;;;;6185483;28;20449;-75
2024/01/13 11:01:50;;;;;;;0.30;0.30;;;;;;;;;;6194700;28;20261;-76
2024/01/13 11:04:51;;;;;;;0.20;0.20;;;;;;;;;;6185823;28;20030;-75
2024/01/13 11:07:51;;;;;;;0.20;0.20;;;;;;;;;;6200189;28;20365;-75
2024/01/13 11:10:52;;;;;;;0.20;0.20;;;;;;;;;;6177154;28;20050;-75
2024/01/13 11:14:04;;;;;;;0.23;0.23;;;;;;;;;;6172012;28;20027;-76
2024/01/13 11:17:05;;;;;;;0.20;0.20;;;;;;;;;;6179437;28;20025;-75
2024/01/13 11:20:08;;;;;;;0.20;0.20;;;;;;;;;;6182970;28;20030;-75
2024/01/13 11:23:09;;;;;;;0.20;0.20;;;;;;;;;;6181364;28;20484;-76
2024/01/13 11:26:10;;;;;;;0.20;0.20;;;;;;;;;;6187816;28;20087;-77
2024/01/13 11:29:19;;;;;;;0.20;0.20;;;;;;;;;;6185550;28;20100;-77
2024/01/13 11:32:19;;;;;;;0.20;0.20;;;;;;;;;;6181175;28;20027;-78
2024/01/13 11:35:20;;;;;;;0.20;0.20;;;;;;;;;;6170842;28;20389;-77
2024/01/13 11:38:20;;;;;;;0.20;0.20;;;;;;;;;;6177721;28;20377;-77
2024/01/13 11:41:20;;;;;;;0.20;0.20;;;;;;;;;;6188712;28;20109;-77
2024/01/13 11:44:22;;;;;;;0.20;0.20;;;;;;;;;;6186122;28;20026;-78
2024/01/13 11:47:31;;;;;;;0.30;0.30;;;;;;;;;;6178288;28;20030;-77
2024/01/13 11:50:35;;;;;;;0.30;0.30;;;;;;;;;;6182036;28;20321;-77
2024/01/13 11:53:43;;;;;;;0.20;0.20;;;;;;;;;;6183551;28;20481;-78
2024/01/13 11:56:44;;;;;;;0.20;0.20;;;;;;;;;;6183282;28;20455;-77
2024/01/13 11:59:45;;;;;;;0.20;0.20;;;;;;;;;;6186793;28;20015;-77
2024/01/13 12:02:46;;;;;;;0.20;0.20;;;;;;;;;;6186382;28;20022;-77
2024/01/13 12:05:46;;;;;;;0.20;0.20;;;;;;;;;;6178739;28;20485;-76
2024/01/13 12:08:53;;;;;;;0.30;0.30;;;;;;;;;;6188395;28;20058;-77
2024/01/13 12:11:57;;;;;;;0.20;0.20;;;;;;;;;;6167197;28;20039;-77
2024/01/13 12:15:01;;;;;;;0.30;0.30;;;;;;;;;;6182481;28;20026;-78
2024/01/13 12:18:02;;;;;;;0.20;0.20;;;;;;;;;;6173902;28;20484;-78
2024/01/13 12:21:03;;;;;;;0.30;0.30;;;;;;;;;;6231200;28;20030;-78
2024/01/13 12:24:03;;;;;;;0.20;0.20;;;;;;;;;;6181054;28;20460;-78
2024/01/13 12:27:04;;;;;;;0.20;0.20;;;;;;;;;;6183066;28;20038;-78
2024/01/13 12:30:04;;;;;;;0.20;0.20;;;;;;;;;;6186109;28;20026;-78
2024/01/13 12:33:05;;;;;;;0.20;0.20;;;;;;;;;;6180990;28;20130;-78
2024/01/13 12:36:05;;;;;;;0.20;0.20;;;;;;;;;;6227556;28;20566;-77
2024/01/13 12:39:06;;;;;;;0.20;0.20;;;;;;;;;;6184751;28;20109;-77
2024/01/13 12:42:06;;;;;;;0.30;0.30;;;;;;;;;;6177762;28;20018;-77
2024/01/13 12:45:09;;;;;;;0.20;0.20;;;;;;;;;;6174187;28;20468;-76
2024/01/13 12:48:09;;;;;;;0.30;0.30;;;;;;;;;;6179701;28;20337;-77
2024/01/13 12:51:10;;;;;;;0.20;0.20;;;;;;;;;;6183134;28;20018;-77
2024/01/13 12:54:14;;;;;;;0.30;0.30;;;;;;;;;;6182728;28;20034;-76
2024/01/13 12:57:15;;;;;;;0.20;0.20;;;;;;;;;;6193212;28;20049;-77
2024/01/13 13:00:15;;;;;;;0.20;0.20;;;;;;;;;;6192821;28;20508;-77
2024/01/13 13:03:15;;;;;;;0.20;0.20;;;;;;;;;;6247560;28;20072;-77
2024/01/13 13:06:16;;;;;;;0.20;0.20;;;;;;;;;;6170064;28;20026;-77
2024/01/13 13:09:16;;;;;;;0.20;0.20;;;;;;;;;;6189986;28;20076;-77
2024/01/13 13:12:16;;;;;;;0.20;0.20;;;;;;;;;;6187449;28;20025;-77
2024/01/13 13:15:17;;;;;;;0.20;0.20;;;;;;;;;;6184126;28;20774;-77
2024/01/13 13:18:17;;;;;;;0.20;0.20;;;;;;;;;;6176171;28;20034;-77
2024/01/13 13:21:18;;;;;;;0.20;0.20;;;;;;;;;;6185973;28;20021;-77
2024/01/13 13:24:18;;;;;;;0.20;0.20;;;;;;;;;;6177617;28;20107;-77
2024/01/13 13:27:19;;;;;;;0.23;0.23;;;;;;;;;;6182902;28;20022;-77
2024/01/13 13:30:19;;;;;;;0.20;0.20;;;;;;;;;;6177436;28;20026;-77
2024/01/13 13:33:20;;;;;;;0.20;0.20;;;;;;;;;;6187922;28;20035;-77
2024/01/13 13:36:22;;;;;;;0.30;0.30;;;;;;;;;;6181181;28;20064;-77
2024/01/13 13:39:23;;;;;;;0.20;0.20;;;;;;;;;;6187553;28;20511;-77
2024/01/13 13:42:23;;;;;;;0.20;0.20;;;;;;;;;;6177398;28;20027;-77
2024/01/13 13:45:23;;;;;;;0.20;0.20;;;;;;;;;;6190335;28;20023;-77
2024/01/13 13:48:26;;;;;;;0.20;0.20;;;;;;;;;;6178240;28;20055;-77
2024/01/13 13:51:27;;;;;;;0.25;0.25;;;;;;;;;;6188352;28;20022;-77
2024/01/13 13:54:27;;;;;;;0.30;0.30;;;;;;;;;;6183950;28;20111;-79
2024/01/13 13:57:27;;;;;;;0.30;0.30;;;;;;;;;;6187626;28;20408;-79
2024/01/13 14:00:28;;;;;;;0.30;0.30;;;;;;;;;;6185846;28;20034;-79
2024/01/13 14:03:28;;;;;;;0.20;0.20;;;;;;;;;;6192386;28;20025;-78
2024/01/13 14:06:28;;;;;;;0.23;0.23;;;;;;;;;;6184416;28;20022;-79
2024/01/13 14:09:29;;;;;;;0.30;0.30;;;;;;;;;;6186167;28;20026;-79
2024/01/13 14:12:29;;;;;;;0.20;0.20;;;;;;;;;;6183792;28;20030;-79
2024/01/13 14:15:29;;;;;;;0.20;0.20;;;;;;;;;;6171778;28;20378;-79
2024/01/13 14:18:33;;;;;;;0.20;0.20;;;;;;;;;;6183747;28;20018;-79
2024/01/13 14:21:33;;;;;;;0.20;0.20;;;;;;;;;;6178367;28;20025;-79
2024/01/13 14:24:33;;;;;;;0.30;0.30;;;;;;;;;;6195756;28;20026;-79
2024/01/13 14:27:33;;;;;;;0.30;0.30;;;;;;;;;;6172004;28;20033;-79
2024/01/13 14:30:34;;;;;;;0.20;0.20;;;;;;;;;;6177295;28;20029;-79
2024/01/13 14:33:34;;;;;;;0.30;0.30;;;;;;;;;;6187931;28;20050;-79
2024/01/13 14:36:37;;;;;;;0.20;0.20;;;;;;;;;;6172753;28;20109;-80
2024/01/13 14:39:37;;;;;;;0.28;0.28;;;;;;;;;;6173923;28;20016;-79
2024/01/13 14:42:38;;;;;;;0.20;0.20;;;;;;;;;;6186449;28;20031;-80
2024/01/13 14:45:38;;;;;;;0.25;0.25;;;;;;;;;;6187063;28;20077;-79
2024/01/13 14:48:39;;;;;;;0.30;0.30;;;;;;;;;;6187190;28;20026;-79
2024/01/13 14:51:39;;;;;;;0.20;0.20;;;;;;;;;;6195381;28;20685;-79
2024/01/13 14:54:40;;;;;;;0.20;0.20;;;;;;;;;;6193062;28;20033;-78
2024/01/13 14:57:41;;;;;;;0.30;0.30;;;;;;;;;;6189460;28;20124;-79
2024/01/13 15:00:41;;;;;;;0.20;0.20;;;;;;;;;;6192451;28;20033;-78
2024/01/13 15:03:42;;;;;;;0.20;0.20;;;;;;;;;;6172201;28;20478;-78
2024/01/13 15:06:42;;;;;;;0.20;0.20;;;;;;;;;;6182133;28;20499;-79
2024/01/13 15:09:42;;;;;;;0.20;0.20;;;;;;;;;;6175956;28;20078;-78
2024/01/13 15:12:43;;;;;;;0.20;0.20;;;;;;;;;;6167236;28;20039;-79
2024/01/13 15:15:43;;;;;;;0.20;0.20;;;;;;;;;;6174799;28;20022;-79
2024/01/13 15:18:43;;;;;;;0.20;0.20;;;;;;;;;;6182722;28;20625;-79
2024/01/13 15:21:43;;;;;;;0.20;0.20;;;;;;;;;;6197062;28;20023;-79
2024/01/13 15:24:43;;;;;;;0.20;0.20;;;;;;;;;;6195256;28;20022;-79
2024/01/13 15:27:44;;;;;;;0.20;0.20;;;;;;;;;;6189883;28;20022;-78
2024/01/13 15:30:44;;;;;;;0.20;0.20;;;;;;;;;;6194597;28;20022;-78
2024/01/13 15:33:48;;;;;;;0.30;0.30;;;;;;;;;;6181113;28;20037;-78
2024/01/13 15:36:49;;;;;;;0.30;0.30;;;;;;;;;;6193948;28;20024;-78
2024/01/13 15:39:49;;;;;;;0.30;0.30;;;;;;;;;;6177358;28;20114;-79
2024/01/13 15:42:49;;;;;;;0.20;0.20;;;;;;;;;;6185460;28;20024;-78
2024/01/13 15:45:53;;;;;;;0.20;0.20;;;;;;;;;;6170576;28;20035;-80
2024/01/13 15:48:53;;;;;;;0.20;0.20;;;;;;;;;;6172107;28;20023;-80
2024/01/13 15:51:55;;;;;;;0.20;0.20;;;;;;;;;;6182570;28;21178;-79
2024/01/13 15:54:56;;;;;;;0.20;0.20;;;;;;;;;;6181325;28;20158;-80
2024/01/13 15:57:56;;;;;;;0.20;0.20;;;;;;;;;;6186884;28;20026;-79
2024/01/13 16:00:57;;;;;;;0.30;0.30;;;;;;;;;;6187353;28;20034;-79
2024/01/13 16:03:57;;;;;;;0.30;0.30;;;;;;;;;;6188459;28;20034;-80
2024/01/13 16:06:57;;;;;;;0.30;0.30;;;;;;;;;;6257980;28;20033;-80
2024/01/13 16:09:57;;;;;;;0.20;0.20;;;;;;;;;;6177963;28;20050;-80
2024/01/13 16:12:58;;;;;;;0.20;0.20;;;;;;;;;;6172610;28;20049;-80
2024/01/13 16:15:59;;;;;;;0.20;0.20;;;;;;;;;;6203798;28;20025;-78
2024/01/13 16:18:59;;;;;;;0.20;0.20;;;;;;;;;;6185515;28;20451;-78
2024/01/13 16:22:00;;;;;;;0.20;0.20;;;;;;;;;;6180206;28;20026;-78
2024/01/13 16:25:00;;;;;;;0.20;0.20;;;;;;;;;;6184318;28;20030;-78
2024/01/13 16:28:01;;;;;;;0.20;0.20;;;;;;;;;;6189139;28;20069;-78
2024/01/13 16:31:01;;;;;;;0.30;0.30;;;;;;;;;;6182742;28;20011;-78
2024/01/13 16:34:01;;;;;;;0.20;0.20;;;;;;;;;;6186458;28;20526;-78
2024/01/13 16:37:02;;;;;;;0.20;0.20;;;;;;;;;;6188455;28;20026;-79
2024/01/13 16:40:05;;;;;;;0.20;0.20;;;;;;;;;;6176724;28;20118;-78
2024/01/13 16:43:05;;;;;;;0.20;0.20;;;;;;;;;;6180851;28;20479;-78
2024/01/13 16:46:07;;;;;;;0.30;0.30;;;;;;;;;;6174844;28;20034;-78
2024/01/13 16:49:09;;;;;;;;;;;;;;;;;;6182836;28;20503;-78
2024/01/13 16:52:12;;;;;;;0.30;0.30;;;;;;;;;;6179191;28;19913;-78
2024/01/13 16:55:13;;;;;;;0.30;0.30;;;;;;;;;;6185645;28;20446;-78
2024/01/13 16:58:13;;;;;;;0.23;0.23;;;;;;;;;;6184611;28;20053;-79
2024/01/13 17:01:13;;;;;;;0.20;0.20;;;;;;;;;;6190667;28;20026;-79
2024/01/13 17:04:14;;;;;;;0.30;0.30;;;;;;;;;;6184045;28;20035;-79
2024/01/13 17:07:19;;;;;;;0.23;0.23;;;;;;;;;;6178044;28;20023;-78
2024/01/13 17:10:19;;;;;;;0.30;0.30;;;;;;;;;;6186597;28;20089;-79
2024/01/13 17:13:20;;;;;;;0.23;0.23;;;;;;;;;;6190612;28;20030;-79
2024/01/13 17:16:20;;;;;;;0.30;0.30;;;;;;;;;;6193576;28;20155;-79
2024/01/13 17:19:20;;;;;;;0.20;0.20;;;;;;;;;;6228716;28;20164;-79
2024/01/13 17:22:21;;;;;;;0.30;0.30;;;;;;;;;;6189025;28;20041;-79
2024/01/13 17:25:22;;;;;;;0.20;0.20;;;;;;;;;;6177554;28;20026;-79
2024/01/13 17:28:22;;;;;;;0.20;0.20;;;;;;;;;;6190002;28;20030;-79
2024/01/13 17:31:22;;;;;;;0.20;0.20;;;;;;;;;;6189280;28;20030;-79
2024/01/13 17:34:23;;;;;;;0.20;0.20;;;;;;;;;;6182476;28;20034;-79
2024/01/13 17:37:23;;;;;;;0.30;0.30;;;;;;;;;;6187121;28;20444;-78
2024/01/13 17:40:23;;;;;;;0.30;0.30;;;;;;;;;;6172729;28;20061;-78
2024/01/13 17:43:23;;;;;;;0.30;0.30;;;;;;;;;;6183185;28;20469;-78
2024/01/13 17:46:23;;;;;;;0.30;0.30;;;;;;;;;;6189234;28;20042;-78
2024/01/13 17:49:24;;;;;;;0.20;0.20;;;;;;;;;;6181059;28;20446;-79
2024/01/13 17:52:25;;;;;;;0.20;0.20;;;;;;;;;;6179556;28;20167;-78
2024/01/13 17:55:26;;;;;;;0.20;0.20;;;;;;;;;;6184027;28;20072;-79
2024/01/13 17:58:26;;;;;;;0.20;0.20;;;;;;;;;;6191541;28;20097;-78
2024/01/13 18:01:26;;;;;;;0.20;0.20;;;;;;;;;;6188192;28;20018;-78
2024/01/13 18:04:27;;;;;;;0.20;0.20;;;;;;;;;;6185949;28;20022;-78